sensor_id;sensor_type;location;lat;lon;timestamp;pressure;altitude;pressure_sealevel;temperature;humidity
15419;BME280;7808;43.712;23.098;2022-07-05T00:00:50;100520.28;;;23.45;100.00
15419;BME280;7808;43.712;23.098;2022-07-05T00:03:17;100520.66;;;23.47;100.00
15419;BME280;7808;43.712;23.098;2022-07-05T00:05:43;100519.84;;;23.50;100.00
15419;BME280;7808;43.712;23.098;2022-07-05T00:08:10;100522.97;;;23.56;100.00
15419;BME280;7808;43.712;23.098;2022-07-05T00:10:37;100510.31;;;23.59;100.00
15419;BME280;7808;43.712;23.098;2022-07-05T00:13:05;100521.38;;;23.55;100.00
15419;BME280;7808;43.712;23.098;2022-07-05T00:15:34;100515.19;;;23.44;100.00
15419;BME280;7808;43.712;23.098;2022-07-05T00:18:01;100512.41;;;23.44;100.00
15419;BME280;7808;43.712;23.098;2022-07-05T00:20:28;100519.06;;;23.50;100.00
15419;BME280;7808;43.712;23.098;2022-07-05T00:22:55;100517.13;;;23.47;100.00
15419;BME280;7808;43.712;23.098;2022-07-05T00:25:22;100516.72;;;23.48;100.00
15419;BME280;7808;43.712;23.098;2022-07-05T00:27:48;100515.53;;;23.46;100.00
15419;BME280;7808;43.712;23.098;2022-07-05T00:30:15;100525.38;;;23.50;100.00
15419;BME280;7808;43.712;23.098;2022-07-05T00:32:44;100526.69;;;23.39;100.00
15419;BME280;7808;43.712;23.098;2022-07-05T00:35:11;100521.16;;;23.39;100.00
15419;BME280;7808;43.712;23.098;2022-07-05T00:37:38;100519.19;;;23.36;100.00
15419;BME280;7808;43.712;23.098;2022-07-05T00:40:06;100518.38;;;23.39;100.00
15419;BME280;7808;43.712;23.098;2022-07-05T00:42:35;100517.56;;;23.42;100.00
15419;BME280;7808;43.712;23.098;2022-07-05T00:45:03;100481.31;;;23.26;100.00
15419;BME280;7808;43.712;23.098;2022-07-05T00:47:31;100511.97;;;23.49;100.00
15419;BME280;7808;43.712;23.098;2022-07-05T00:49:59;100507.34;;;23.32;100.00
15419;BME280;7808;43.712;23.098;2022-07-05T00:52:26;100508.16;;;23.29;100.00
15419;BME280;7808;43.712;23.098;2022-07-05T00:54:53;100509.00;;;23.19;100.00
15419;BME280;7808;43.712;23.098;2022-07-05T00:57:21;100506.47;;;22.91;100.00
15419;BME280;7808;43.712;23.098;2022-07-05T00:59:48;100498.97;;;22.87;100.00
15419;BME280;7808;43.712;23.098;2022-07-05T01:02:15;100502.91;;;22.86;100.00
15419;BME280;7808;43.712;23.098;2022-07-05T01:04:46;100498.16;;;22.91;100.00
15419;BME280;7808;43.712;23.098;2022-07-05T01:07:16;100506.03;;;22.96;100.00
15419;BME280;7808;43.712;23.098;2022-07-05T01:09:43;100501.34;;;22.85;100.00
15419;BME280;7808;43.712;23.098;2022-07-05T01:12:10;100495.00;;;22.92;100.00
15419;BME280;7808;43.712;23.098;2022-07-05T01:14:37;100493.06;;;22.82;100.00
15419;BME280;7808;43.712;23.098;2022-07-05T01:17:05;100487.28;;;22.62;100.00
15419;BME280;7808;43.712;23.098;2022-07-05T01:19:32;100496.72;;;22.68;100.00
15419;BME280;7808;43.712;23.098;2022-07-05T01:22:01;100493.66;;;22.45;100.00
15419;BME280;7808;43.712;23.098;2022-07-05T01:24:31;100491.38;;;22.30;100.00
15419;BME280;7808;43.712;23.098;2022-07-05T01:26:58;100495.25;;;22.39;100.00
15419;BME280;7808;43.712;23.098;2022-07-05T01:29:25;100502.34;;;22.40;100.00
15419;BME280;7808;43.712;23.098;2022-07-05T01:31:52;100493.69;;;22.38;100.00
15419;BME280;7808;43.712;23.098;2022-07-05T01:34:20;100494.44;;;22.49;100.00
15419;BME280;7808;43.712;23.098;2022-07-05T01:36:47;100500.78;;;22.39;100.00
15419;BME280;7808;43.712;23.098;2022-07-05T01:39:15;100494.50;;;22.28;100.00
15419;BME280;7808;43.712;23.098;2022-07-05T01:41:43;100496.09;;;22.29;100.00
15419;BME280;7808;43.712;23.098;2022-07-05T01:44:11;100505.50;;;22.42;100.00
15419;BME280;7808;43.712;23.098;2022-07-05T01:46:38;100507.88;;;22.40;100.00
15419;BME280;7808;43.712;23.098;2022-07-05T01:49:10;100501.16;;;22.38;100.00
15419;BME280;7808;43.712;23.098;2022-07-05T01:51:42;100498.47;;;22.27;100.00
15419;BME280;7808;43.712;23.098;2022-07-05T01:54:11;100500.88;;;22.11;100.00
15419;BME280;7808;43.712;23.098;2022-07-05T01:56:38;100504.47;;;21.97;100.00
15419;BME280;7808;43.712;23.098;2022-07-05T01:59:07;100505.66;;;21.96;100.00
15419;BME280;7808;43.712;23.098;2022-07-05T02:01:36;100498.53;;;22.06;100.00
15419;BME280;7808;43.712;23.098;2022-07-05T02:04:05;100507.97;;;22.19;100.00
15419;BME280;7808;43.712;23.098;2022-07-05T02:06:32;100511.16;;;22.07;100.00
15419;BME280;7808;43.712;23.098;2022-07-05T02:08:59;100508.38;;;22.17;100.00
15419;BME280;7808;43.712;23.098;2022-07-05T02:11:26;100517.31;;;22.43;100.00
15419;BME280;7808;43.712;23.098;2022-07-05T02:13:53;100518.91;;;22.40;100.00
15419;BME280;7808;43.712;23.098;2022-07-05T02:16:26;100515.78;;;22.38;100.00
15419;BME280;7808;43.712;23.098;2022-07-05T02:18:53;100518.22;;;22.22;100.00
15419;BME280;7808;43.712;23.098;2022-07-05T02:21:20;100525.31;;;22.16;100.00
15419;BME280;7808;43.712;23.098;2022-07-05T02:23:48;100518.66;;;21.99;100.00
15419;BME280;7808;43.712;23.098;2022-07-05T02:26:14;100523.38;;;22.06;100.00
15419;BME280;7808;43.712;23.098;2022-07-05T02:28:42;100521.44;;;22.03;100.00
15419;BME280;7808;43.712;23.098;2022-07-05T02:31:09;100523.00;;;22.04;100.00
15419;BME280;7808;43.712;23.098;2022-07-05T02:33:37;100525.38;;;22.02;100.00
15419;BME280;7808;43.712;23.098;2022-07-05T02:36:09;100524.56;;;22.05;100.00
15419;BME280;7808;43.712;23.098;2022-07-05T02:38:36;100526.13;;;22.09;100.00
15419;BME280;7808;43.712;23.098;2022-07-05T02:41:07;100534.44;;;22.02;100.00
15419;BME280;7808;43.712;23.098;2022-07-05T02:43:34;100545.50;;;21.92;100.00
15419;BME280;7808;43.712;23.098;2022-07-05T02:46:01;100540.75;;;21.82;100.00
15419;BME280;7808;43.712;23.098;2022-07-05T02:48:29;100548.25;;;21.78;100.00
15419;BME280;7808;43.712;23.098;2022-07-05T02:50:57;100541.56;;;21.75;100.00
15419;BME280;7808;43.712;23.098;2022-07-05T02:53:24;100562.44;;;21.62;100.00
15419;BME280;7808;43.712;23.098;2022-07-05T02:55:51;100553.41;;;21.62;100.00
15419;BME280;7808;43.712;23.098;2022-07-05T02:58:18;100552.19;;;21.63;100.00
15419;BME280;7808;43.712;23.098;2022-07-05T03:00:45;100553.38;;;21.72;100.00
15419;BME280;7808;43.712;23.098;2022-07-05T03:03:13;100552.59;;;21.57;100.00
15419;BME280;7808;43.712;23.098;2022-07-05T03:05:40;100560.84;;;21.72;100.00
15419;BME280;7808;43.712;23.098;2022-07-05T03:08:08;100521.47;;;21.53;100.00
15419;BME280;7808;43.712;23.098;2022-07-05T03:10:35;100557.31;;;21.82;100.00
15419;BME280;7808;43.712;23.098;2022-07-05T03:13:02;100556.94;;;21.87;100.00
15419;BME280;7808;43.712;23.098;2022-07-05T03:15:29;100565.97;;;21.84;100.00
15419;BME280;7808;43.712;23.098;2022-07-05T03:17:56;100564.03;;;21.88;100.00
15419;BME280;7808;43.712;23.098;2022-07-05T03:20:23;100556.16;;;21.90;100.00
15419;BME280;7808;43.712;23.098;2022-07-05T03:22:50;100551.81;;;21.96;100.00
15419;BME280;7808;43.712;23.098;2022-07-05T03:25:19;100549.84;;;21.93;100.00
15419;BME280;7808;43.712;23.098;2022-07-05T03:27:46;100547.84;;;22.04;100.00
15419;BME280;7808;43.712;23.098;2022-07-05T03:30:13;100539.56;;;22.04;100.00
15419;BME280;7808;43.712;23.098;2022-07-05T03:32:40;100555.28;;;22.21;100.00
15419;BME280;7808;43.712;23.098;2022-07-05T03:35:07;100543.50;;;22.03;100.00
15419;BME280;7808;43.712;23.098;2022-07-05T03:37:34;100545.88;;;22.08;100.00
15419;BME280;7808;43.712;23.098;2022-07-05T03:40:02;100547.78;;;22.18;100.00
15419;BME280;7808;43.712;23.098;2022-07-05T03:42:30;100548.22;;;22.20;100.00
15419;BME280;7808;43.712;23.098;2022-07-05T03:44:57;100540.34;;;22.15;100.00
15419;BME280;7808;43.712;23.098;2022-07-05T03:47:24;100544.66;;;22.19;100.00
15419;BME280;7808;43.712;23.098;2022-07-05T03:49:51;100548.22;;;22.20;100.00
15419;BME280;7808;43.712;23.098;2022-07-05T03:52:18;100548.16;;;22.31;100.00
15419;BME280;7808;43.712;23.098;2022-07-05T03:54:45;100550.47;;;22.46;100.00
15419;BME280;7808;43.712;23.098;2022-07-05T03:57:12;100557.94;;;22.56;100.00
15419;BME280;7808;43.712;23.098;2022-07-05T03:59:41;100557.53;;;22.58;100.00
15419;BME280;7808;43.712;23.098;2022-07-05T04:02:07;100551.63;;;22.52;100.00
15419;BME280;7808;43.712;23.098;2022-07-05T04:04:35;100557.53;;;22.68;100.00
15419;BME280;7808;43.712;23.098;2022-07-05T04:07:02;100557.06;;;22.80;100.00
15419;BME280;7808;43.712;23.098;2022-07-05T04:09:28;100555.00;;;22.92;100.00
15419;BME280;7808;43.712;23.098;2022-07-05T04:11:55;100561.28;;;23.03;100.00
15419;BME280;7808;43.712;23.098;2022-07-05T04:14:24;100570.72;;;23.09;100.00
15419;BME280;7808;43.712;23.098;2022-07-05T04:16:52;100565.50;;;23.21;100.00
15419;BME280;7808;43.712;23.098;2022-07-05T04:19:19;100567.41;;;23.35;100.00
15419;BME280;7808;43.712;23.098;2022-07-05T04:21:46;100580.78;;;23.47;100.00
15419;BME280;7808;43.712;23.098;2022-07-05T04:24:13;100574.31;;;23.64;100.00
15419;BME280;7808;43.712;23.098;2022-07-05T04:26:40;100575.81;;;23.72;100.00
15419;BME280;7808;43.712;23.098;2022-07-05T04:29:07;100579.66;;;23.85;100.00
15419;BME280;7808;43.712;23.098;2022-07-05T04:31:34;100572.59;;;23.77;100.00
15419;BME280;7808;43.712;23.098;2022-07-05T04:34:03;100577.31;;;23.84;100.00
15419;BME280;7808;43.712;23.098;2022-07-05T04:36:29;100576.75;;;23.99;100.00
15419;BME280;7808;43.712;23.098;2022-07-05T04:38:56;100577.50;;;24.07;100.00
15419;BME280;7808;43.712;23.098;2022-07-05T04:41:23;100574.53;;;24.25;100.00
15419;BME280;7808;43.712;23.098;2022-07-05T04:43:50;100578.28;;;24.45;100.00
15419;BME280;7808;43.712;23.098;2022-07-05T04:46:17;100589.53;;;24.64;100.00
15419;BME280;7808;43.712;23.098;2022-07-05T04:48:44;100588.53;;;24.82;100.00
15419;BME280;7808;43.712;23.098;2022-07-05T04:51:13;100593.94;;;24.92;100.00
15419;BME280;7808;43.712;23.098;2022-07-05T04:53:40;100588.56;;;25.08;100.00
15419;BME280;7808;43.712;23.098;2022-07-05T04:56:07;100586.78;;;25.21;100.00
15419;BME280;7808;43.712;23.098;2022-07-05T04:58:34;100589.94;;;25.23;100.00
15419;BME280;7808;43.712;23.098;2022-07-05T05:01:01;100592.13;;;25.35;100.00
15419;BME280;7808;43.712;23.098;2022-07-05T05:03:28;100597.38;;;25.57;100.00
15419;BME280;7808;43.712;23.098;2022-07-05T05:05:55;100583.13;;;25.78;100.00
15419;BME280;7808;43.712;23.098;2022-07-05T05:08:23;100582.34;;;26.00;100.00
15419;BME280;7808;43.712;23.098;2022-07-05T05:10:50;100582.06;;;26.18;100.00
15419;BME280;7808;43.712;23.098;2022-07-05T05:13:17;100586.63;;;26.28;100.00
15419;BME280;7808;43.712;23.098;2022-07-05T05:15:44;100595.81;;;26.25;100.00
15419;BME280;7808;43.712;23.098;2022-07-05T05:18:11;100595.75;;;26.48;100.00
15419;BME280;7808;43.712;23.098;2022-07-05T05:20:38;100593.91;;;26.61;100.00
15419;BME280;7808;43.712;23.098;2022-07-05T05:23:05;100593.13;;;26.81;100.00
15419;BME280;7808;43.712;23.098;2022-07-05T05:25:34;100584.06;;;26.96;100.00
15419;BME280;7808;43.712;23.098;2022-07-05T05:28:02;100603.44;;;27.00;100.00
15419;BME280;7808;43.712;23.098;2022-07-05T05:30:29;100594.50;;;26.92;100.00
15419;BME280;7808;43.712;23.098;2022-07-05T05:32:56;100600.94;;;27.05;100.00
15419;BME280;7808;43.712;23.098;2022-07-05T05:35:23;100591.38;;;27.06;100.00
15419;BME280;7808;43.712;23.098;2022-07-05T05:37:51;100596.03;;;27.29;100.00
15419;BME280;7808;43.712;23.098;2022-07-05T05:40:19;100600.22;;;27.37;100.00
15419;BME280;7808;43.712;23.098;2022-07-05T05:42:47;100598.50;;;27.59;100.00
15419;BME280;7808;43.712;23.098;2022-07-05T05:45:16;100602.19;;;27.72;100.00
15419;BME280;7808;43.712;23.098;2022-07-05T05:47:47;100598.16;;;27.89;100.00
15419;BME280;7808;43.712;23.098;2022-07-05T05:50:15;100592.84;;;28.11;100.00
15419;BME280;7808;43.712;23.098;2022-07-05T05:52:44;100603.91;;;28.43;100.00
15419;BME280;7808;43.712;23.098;2022-07-05T05:55:11;100599.59;;;28.55;99.17
15419;BME280;7808;43.712;23.098;2022-07-05T05:57:38;100604.28;;;28.58;95.80
15419;BME280;7808;43.712;23.098;2022-07-05T06:00:08;100606.63;;;28.59;98.01
15419;BME280;7808;43.712;23.098;2022-07-05T06:02:35;100607.19;;;28.26;96.51
15419;BME280;7808;43.712;23.098;2022-07-05T06:05:03;100606.91;;;28.49;96.82
15419;BME280;7808;43.712;23.098;2022-07-05T06:07:30;100608.22;;;28.60;94.59
15419;BME280;7808;43.712;23.098;2022-07-05T06:09:57;100608.69;;;28.43;96.36
15419;BME280;7808;43.712;23.098;2022-07-05T06:12:24;100613.97;;;28.25;98.08
15419;BME280;7808;43.712;23.098;2022-07-05T06:14:50;100608.75;;;28.27;95.31
15419;BME280;7808;43.712;23.098;2022-07-05T06:17:19;100607.66;;;28.37;94.83
15419;BME280;7808;43.712;23.098;2022-07-05T06:19:46;100609.94;;;28.54;94.31
15419;BME280;7808;43.712;23.098;2022-07-05T06:22:13;100623.44;;;28.72;93.06
15419;BME280;7808;43.712;23.098;2022-07-05T06:24:39;100619.41;;;28.44;94.89
15419;BME280;7808;43.712;23.098;2022-07-05T06:27:06;100620.13;;;28.32;94.58
15419;BME280;7808;43.712;23.098;2022-07-05T06:29:33;100605.91;;;28.43;93.99
15419;BME280;7808;43.712;23.098;2022-07-05T06:32:00;100613.97;;;28.82;97.44
15419;BME280;7808;43.712;23.098;2022-07-05T06:34:29;100616.19;;;29.28;95.45
15419;BME280;7808;43.712;23.098;2022-07-05T06:36:56;100619.19;;;29.47;92.08
15419;BME280;7808;43.712;23.098;2022-07-05T06:39:23;100611.34;;;29.67;94.54
15419;BME280;7808;43.712;23.098;2022-07-05T06:41:50;100619.38;;;30.03;93.39
15419;BME280;7808;43.712;23.098;2022-07-05T06:44:17;100612.69;;;30.22;92.39
15419;BME280;7808;43.712;23.098;2022-07-05T06:46:44;100620.63;;;30.23;88.67
15419;BME280;7808;43.712;23.098;2022-07-05T06:49:10;100617.56;;;30.30;89.12
15419;BME280;7808;43.712;23.098;2022-07-05T06:51:39;100624.00;;;30.52;88.75
15419;BME280;7808;43.712;23.098;2022-07-05T06:54:06;100624.84;;;30.62;87.87
15419;BME280;7808;43.712;23.098;2022-07-05T06:56:33;100620.44;;;30.74;84.88
15419;BME280;7808;43.712;23.098;2022-07-05T06:59:00;100627.28;;;31.03;87.58
15419;BME280;7808;43.712;23.098;2022-07-05T07:01:26;100626.16;;;30.92;84.09
15419;BME280;7808;43.712;23.098;2022-07-05T07:03:53;100622.81;;;31.06;83.12
15419;BME280;7808;43.712;23.098;2022-07-05T07:06:21;100619.94;;;31.49;84.49
15419;BME280;7808;43.712;23.098;2022-07-05T07:08:49;100621.56;;;31.77;78.05
15419;BME280;7808;43.712;23.098;2022-07-05T07:11:34;100614.53;;;31.73;82.59
15419;BME280;7808;43.712;23.098;2022-07-05T07:14:01;100614.25;;;31.89;82.54
15419;BME280;7808;43.712;23.098;2022-07-05T07:16:28;100606.13;;;31.73;81.43
15419;BME280;7808;43.712;23.098;2022-07-05T07:18:55;100612.22;;;31.80;83.03
15419;BME280;7808;43.712;23.098;2022-07-05T07:21:23;100611.31;;;32.02;82.91
15419;BME280;7808;43.712;23.098;2022-07-05T07:23:51;100601.22;;;32.04;81.82
15419;BME280;7808;43.712;23.098;2022-07-05T07:26:18;100597.63;;;32.22;76.14
15419;BME280;7808;43.712;23.098;2022-07-05T07:28:45;100602.03;;;31.65;80.35
15419;BME280;7808;43.712;23.098;2022-07-05T07:31:11;100601.69;;;32.03;74.26
15419;BME280;7808;43.712;23.098;2022-07-05T07:33:39;100598.25;;;32.08;70.64
15419;BME280;7808;43.712;23.098;2022-07-05T07:36:07;100584.47;;;31.73;71.52
15419;BME280;7808;43.712;23.098;2022-07-05T07:38:34;100594.91;;;31.73;69.84
15419;BME280;7808;43.712;23.098;2022-07-05T07:41:02;100594.09;;;31.54;71.80
15419;BME280;7808;43.712;23.098;2022-07-05T07:43:29;100592.22;;;31.51;74.45
15419;BME280;7808;43.712;23.098;2022-07-05T07:45:56;100578.50;;;31.53;72.79
15419;BME280;7808;43.712;23.098;2022-07-05T07:48:23;100582.31;;;31.87;71.24
15419;BME280;7808;43.712;23.098;2022-07-05T07:50:51;100580.75;;;31.86;71.76
15419;BME280;7808;43.712;23.098;2022-07-05T07:53:18;100586.94;;;31.62;70.18
15419;BME280;7808;43.712;23.098;2022-07-05T07:55:45;100576.69;;;31.77;71.66
15419;BME280;7808;43.712;23.098;2022-07-05T07:58:13;100577.53;;;32.14;70.31
15419;BME280;7808;43.712;23.098;2022-07-05T08:00:40;100581.44;;;32.08;67.90
15419;BME280;7808;43.712;23.098;2022-07-05T08:03:07;100578.63;;;32.35;68.14
15419;BME280;7808;43.712;23.098;2022-07-05T08:05:34;100573.00;;;32.53;69.99
15419;BME280;7808;43.712;23.098;2022-07-05T08:08:01;100574.53;;;32.63;66.07
15419;BME280;7808;43.712;23.098;2022-07-05T08:10:28;100579.03;;;32.79;61.49
15419;BME280;7808;43.712;23.098;2022-07-05T08:12:55;100576.03;;;32.82;61.92
15419;BME280;7808;43.712;23.098;2022-07-05T08:15:23;100578.91;;;32.64;63.00
15419;BME280;7808;43.712;23.098;2022-07-05T08:17:50;100577.00;;;32.70;66.25
15419;BME280;7808;43.712;23.098;2022-07-05T08:20:35;100572.91;;;32.89;66.01
15419;BME280;7808;43.712;23.098;2022-07-05T08:23:19;100572.34;;;32.76;64.32
15419;BME280;7808;43.712;23.098;2022-07-05T08:25:46;100568.06;;;32.90;65.36
15419;BME280;7808;43.712;23.098;2022-07-05T08:28:13;100569.38;;;32.71;68.90
15419;BME280;7808;43.712;23.098;2022-07-05T08:30:41;100566.69;;;32.85;65.77
15419;BME280;7808;43.712;23.098;2022-07-05T08:33:08;100568.81;;;33.08;65.47
15419;BME280;7808;43.712;23.098;2022-07-05T08:35:35;100558.31;;;33.18;65.43
15419;BME280;7808;43.712;23.098;2022-07-05T08:38:02;100560.81;;;33.16;65.33
15419;BME280;7808;43.712;23.098;2022-07-05T08:40:29;100557.75;;;33.05;68.70
15419;BME280;7808;43.712;23.098;2022-07-05T08:43:00;100550.84;;;33.39;63.42
15419;BME280;7808;43.712;23.098;2022-07-05T08:45:29;100544.81;;;33.31;68.93
15419;BME280;7808;43.712;23.098;2022-07-05T08:48:00;100553.38;;;33.69;69.74
15419;BME280;7808;43.712;23.098;2022-07-05T08:50:27;100545.75;;;33.99;70.04
15419;BME280;7808;43.712;23.098;2022-07-05T08:52:55;100537.63;;;34.40;67.26
15419;BME280;7808;43.712;23.098;2022-07-05T08:55:24;100538.53;;;34.60;64.65
15419;BME280;7808;43.712;23.098;2022-07-05T08:57:51;100537.53;;;34.78;62.66
15419;BME280;7808;43.712;23.098;2022-07-05T09:00:19;100534.13;;;35.03;63.89
15419;BME280;7808;43.712;23.098;2022-07-05T09:02:45;100523.72;;;35.09;63.76
15419;BME280;7808;43.712;23.098;2022-07-05T09:05:15;100530.59;;;35.43;62.05
15419;BME280;7808;43.712;23.098;2022-07-05T09:07:48;100531.47;;;35.14;56.65
15419;BME280;7808;43.712;23.098;2022-07-05T09:10:17;100538.25;;;35.22;57.40
15419;BME280;7808;43.712;23.098;2022-07-05T09:12:45;100523.75;;;35.29;62.18
15419;BME280;7808;43.712;23.098;2022-07-05T09:15:12;100523.47;;;35.47;61.30
15419;BME280;7808;43.712;23.098;2022-07-05T09:17:43;100525.06;;;35.69;59.55
15419;BME280;7808;43.712;23.098;2022-07-05T09:20:11;100517.56;;;35.45;56.42
15419;BME280;7808;43.712;23.098;2022-07-05T09:22:45;100513.50;;;35.67;55.78
15419;BME280;7808;43.712;23.098;2022-07-05T09:25:17;100520.75;;;35.73;56.34
15419;BME280;7808;43.712;23.098;2022-07-05T09:27:53;100517.03;;;35.82;55.70
15419;BME280;7808;43.712;23.098;2022-07-05T09:30:29;100514.88;;;35.97;57.12
15419;BME280;7808;43.712;23.098;2022-07-05T09:33:03;100500.09;;;35.82;52.37
15419;BME280;7808;43.712;23.098;2022-07-05T09:35:31;100499.53;;;35.57;53.60
15419;BME280;7808;43.712;23.098;2022-07-05T09:38:00;100500.53;;;35.75;53.71
15419;BME280;7808;43.712;23.098;2022-07-05T09:40:29;100500.09;;;35.82;52.51
15419;BME280;7808;43.712;23.098;2022-07-05T09:43:10;100490.97;;;35.32;51.75
15419;BME280;7808;43.712;23.098;2022-07-05T09:45:37;100492.78;;;35.70;51.41
15419;BME280;7808;43.712;23.098;2022-07-05T09:48:06;100483.78;;;35.51;50.74
15419;BME280;7808;43.712;23.098;2022-07-05T09:50:34;100487.38;;;35.31;50.29
15419;BME280;7808;43.712;23.098;2022-07-05T09:53:03;100482.78;;;35.34;51.19
15419;BME280;7808;43.712;23.098;2022-07-05T09:55:31;100483.72;;;35.45;49.62
15419;BME280;7808;43.712;23.098;2022-07-05T09:57:58;100484.38;;;35.55;52.53
15419;BME280;7808;43.712;23.098;2022-07-05T10:00:25;100477.34;;;35.65;49.80
15419;BME280;7808;43.712;23.098;2022-07-05T10:02:53;100476.72;;;35.81;50.29
15419;BME280;7808;43.712;23.098;2022-07-05T10:05:25;100468.88;;;35.91;52.50
15419;BME280;7808;43.712;23.098;2022-07-05T10:07:54;100475.25;;;35.86;51.74
15419;BME280;7808;43.712;23.098;2022-07-05T10:10:24;100474.09;;;35.98;51.77
15419;BME280;7808;43.712;23.098;2022-07-05T10:12:53;100467.03;;;36.34;54.65
15419;BME280;7808;43.712;23.098;2022-07-05T10:15:21;100460.69;;;36.44;54.11
15419;BME280;7808;43.712;23.098;2022-07-05T10:17:52;100458.03;;;36.61;51.06
15419;BME280;7808;43.712;23.098;2022-07-05T10:20:24;100454.44;;;36.60;52.81
15419;BME280;7808;43.712;23.098;2022-07-05T10:22:52;100455.03;;;36.44;49.92
15419;BME280;7808;43.712;23.098;2022-07-05T10:25:21;100453.25;;;36.72;54.53
15419;BME280;7808;43.712;23.098;2022-07-05T10:27:50;100457.13;;;37.17;52.98
15419;BME280;7808;43.712;23.098;2022-07-05T10:30:20;100442.78;;;37.32;50.55
15419;BME280;7808;43.712;23.098;2022-07-05T10:32:48;100440.31;;;37.45;48.92
15419;BME280;7808;43.712;23.098;2022-07-05T10:35:16;100434.72;;;37.67;44.13
15419;BME280;7808;43.712;23.098;2022-07-05T10:37:43;100438.34;;;37.73;47.71
15419;BME280;7808;43.712;23.098;2022-07-05T10:40:11;100435.16;;;37.49;45.55
15419;BME280;7808;43.712;23.098;2022-07-05T10:42:40;100433.69;;;37.70;43.25
15419;BME280;7808;43.712;23.098;2022-07-05T10:45:29;100431.13;;;37.61;42.32
15419;BME280;7808;43.712;23.098;2022-07-05T10:48:16;100429.03;;;37.56;42.38
15419;BME280;7808;43.712;23.098;2022-07-05T10:50:45;100420.31;;;37.65;45.49
15419;BME280;7808;43.712;23.098;2022-07-05T10:53:13;100411.31;;;37.72;43.20
15419;BME280;7808;43.712;23.098;2022-07-05T10:55:51;100407.53;;;37.92;43.35
15419;BME280;7808;43.712;23.098;2022-07-05T10:58:20;100412.16;;;38.11;40.96
15419;BME280;7808;43.712;23.098;2022-07-05T11:04:10;100402.13;;;38.49;41.16
15419;BME280;7808;43.712;23.098;2022-07-05T11:06:41;100401.84;;;38.75;43.71
15419;BME280;7808;43.712;23.098;2022-07-05T11:09:16;100390.53;;;38.75;41.12
15419;BME280;7808;43.712;23.098;2022-07-05T11:11:44;100383.56;;;38.70;39.47
15419;BME280;7808;43.712;23.098;2022-07-05T11:14:38;100377.91;;;38.15;40.40
15419;BME280;7808;43.712;23.098;2022-07-05T11:17:17;100374.34;;;38.14;41.38
15419;BME280;7808;43.712;23.098;2022-07-05T11:20:08;100371.25;;;38.35;40.33
15419;BME280;7808;43.712;23.098;2022-07-05T11:22:37;100375.63;;;38.13;42.16
15419;BME280;7808;43.712;23.098;2022-07-05T11:25:05;100374.59;;;38.39;42.38
15419;BME280;7808;43.712;23.098;2022-07-05T11:27:33;100371.19;;;38.57;41.57
15419;BME280;7808;43.712;23.098;2022-07-05T11:30:00;100373.00;;;38.71;38.70
15419;BME280;7808;43.712;23.098;2022-07-05T11:32:37;100367.88;;;38.08;37.98
15419;BME280;7808;43.712;23.098;2022-07-05T11:35:16;100360.16;;;38.26;42.80
15419;BME280;7808;43.712;23.098;2022-07-05T11:38:00;100361.72;;;38.49;39.34
15419;BME280;7808;43.712;23.098;2022-07-05T11:40:33;100361.41;;;38.58;38.53
15419;BME280;7808;43.712;23.098;2022-07-05T11:43:00;100353.91;;;38.77;39.42
15419;BME280;7808;43.712;23.098;2022-07-05T11:45:29;100321.91;;;38.93;40.65
15419;BME280;7808;43.712;23.098;2022-07-05T11:47:57;100346.00;;;39.27;38.56
15419;BME280;7808;43.712;23.098;2022-07-05T11:50:30;100339.47;;;39.38;37.72
15419;BME280;7808;43.712;23.098;2022-07-05T11:52:58;100340.16;;;39.50;36.88
15419;BME280;7808;43.712;23.098;2022-07-05T11:55:27;100334.34;;;39.36;38.42
15419;BME280;7808;43.712;23.098;2022-07-05T11:57:56;100320.28;;;39.03;36.48
15419;BME280;7808;43.712;23.098;2022-07-05T12:00:30;100324.28;;;38.67;37.59
15419;BME280;7808;43.712;23.098;2022-07-05T12:02:58;100323.59;;;38.39;38.08
15419;BME280;7808;43.712;23.098;2022-07-05T12:05:33;100323.09;;;38.24;38.74
15419;BME280;7808;43.712;23.098;2022-07-05T12:08:00;100324.38;;;37.84;39.52
15419;BME280;7808;43.712;23.098;2022-07-05T12:10:27;100310.75;;;38.10;40.76
15419;BME280;7808;43.712;23.098;2022-07-05T12:13:11;100309.44;;;38.33;41.97
15419;BME280;7808;43.712;23.098;2022-07-05T12:15:38;100323.00;;;38.68;40.17
15419;BME280;7808;43.712;23.098;2022-07-05T12:18:06;100309.56;;;38.91;36.53
15419;BME280;7808;43.712;23.098;2022-07-05T12:20:37;100301.16;;;38.52;36.94
15419;BME280;7808;43.712;23.098;2022-07-05T12:23:05;100313.78;;;38.56;38.39
15419;BME280;7808;43.712;23.098;2022-07-05T12:25:33;100305.78;;;38.55;38.56
15419;BME280;7808;43.712;23.098;2022-07-05T12:28:01;100305.56;;;38.42;39.54
15419;BME280;7808;43.712;23.098;2022-07-05T12:30:31;100293.47;;;38.41;40.97
15419;BME280;7808;43.712;23.098;2022-07-05T12:33:00;100287.75;;;38.58;40.06
15419;BME280;7808;43.712;23.098;2022-07-05T12:35:32;100280.72;;;38.70;34.53
15419;BME280;7808;43.712;23.098;2022-07-05T12:38:08;100271.28;;;38.45;34.65
15419;BME280;7808;43.712;23.098;2022-07-05T12:40:36;100283.94;;;38.39;36.10
15419;BME280;7808;43.712;23.098;2022-07-05T12:43:05;100286.03;;;38.10;38.05
15419;BME280;7808;43.712;23.098;2022-07-05T12:45:33;100278.84;;;38.04;38.30
15419;BME280;7808;43.712;23.098;2022-07-05T12:48:01;100281.41;;;37.96;36.70
15419;BME280;7808;43.712;23.098;2022-07-05T12:50:30;100281.66;;;37.76;37.92
15419;BME280;7808;43.712;23.098;2022-07-05T12:53:03;100275.72;;;37.74;37.81
15419;BME280;7808;43.712;23.098;2022-07-05T12:55:49;100265.97;;;37.53;37.52